Time;durP1;ratioP1;P1;durP2;ratioP2;P2;SDS_P1;SDS_P2;PMS_P1;PMS_P2;Temp;Humidity;BMP_temperature;BMP_pressure;BME280_temperature;BME280_humidity;BME280_pressure;Samples;Min_cycle;Max_cycle;Signal;HPM_P1;HPM_P2
2022/04/13 00:00:25;;;;;;;3.1;1.9;;;;;;;10.4;71.28027;935.5531;;;;
2022/04/13 00:02:54;;;;;;;2.1;1.9;;;;;;;10.25;71.89551;935.5611;;;;
2022/04/13 00:05:19;;;;;;;2.7;1.6;;;;;;;10.27;71.88672;935.5834;;;;
2022/04/13 00:07:47;;;;;;;4;1.9;;;;;;;10.16;72.41699;935.5328;;;;
2022/04/13 00:10:12;;;;;;;3.2;1.8;;;;;;;10.26;72;935.5173;;;;
2022/04/13 00:12:42;;;;;;;2.2;1.9;;;;;;;10.39;71.62109;935.5078;;;;
2022/04/13 00:15:11;;;;;;;2.1;1.8;;;;;;;10.34;71.14453;935.5034;;;;
2022/04/13 00:17:37;;;;;;;4;1.9;;;;;;;10.29;71.74023;935.5533;;;;
2022/04/13 00:20:02;;;;;;;3.8;1.9;;;;;;;10.27;71.46484;935.5627;;;;
2022/04/13 00:22:27;;;;;;;3.3;1.8;;;;;;;10.09;72.13086;935.5419;;;;
2022/04/13 00:24:52;;;;;;;3.1;1.6;;;;;;;10.12;72.02148;935.5167;;;;
2022/04/13 00:27:21;;;;;;;2.1;1.8;;;;;;;9.94;72.83594;935.6194;;;;
2022/04/13 00:29:46;;;;;;;6.4;1.9;;;;;;;9.83;73.66016;935.5597;;;;
2022/04/13 00:32:13;;;;;;;1.8;1.5;;;;;;;9.8;73.57422;935.5957;;;;
2022/04/13 00:34:39;;;;;;;2.1;1.7;;;;;;;9.76;74.04785;935.5597;;;;
2022/04/13 00:37:07;;;;;;;3.4;1.9;;;;;;;9.82;73.69238;935.5603;;;;
2022/04/13 00:39:32;;;;;;;3.5;2;;;;;;;9.76;73.86621;935.5795;;;;
2022/04/13 00:42:00;;;;;;;3.3;1.8;;;;;;;9.78;73.48145;935.532;;;;
2022/04/13 00:44:25;;;;;;;3.6;2;;;;;;;9.88;73.00684;935.5457;;;;
2022/04/13 00:46:51;;;;;;;6.4;2.1;;;;;;;9.8;73.2334;935.5193;;;;
2022/04/13 00:49:16;;;;;;;2.1;1.4;;;;;;;9.75;73.21289;935.5134;;;;
2022/04/13 00:51:45;;;;;;;3.2;1.7;;;;;;;9.55;74.10254;935.5289;;;;
2022/04/13 00:54:10;;;;;;;2.5;1.6;;;;;;;9.44;74.66406;935.5486;;;;
2022/04/13 00:56:35;;;;;;;4.2;1.9;;;;;;;9.55;74.15723;935.5139;;;;
2022/04/13 00:59:00;;;;;;;3.6;2.2;;;;;;;9.63;73.80664;935.4933;;;;
2022/04/13 01:01:30;;;;;;;3.9;2.4;;;;;;;9.7;73.3877;935.5226;;;;
2022/04/13 01:03:55;;;;;;;3.3;2.1;;;;;;;9.71;73.23926;935.467;;;;
2022/04/13 01:06:20;;;;;;;5.1;2.4;;;;;;;9.53;73.96191;935.5058;;;;
2022/04/13 01:08:47;;;;;;;3.3;2;;;;;;;9.5;73.71875;935.3967;;;;
2022/04/13 01:11:12;;;;;;;3.9;2.1;;;;;;;9.5;73.69434;935.4609;;;;
2022/04/13 01:13:39;;;;;;;3.4;2;;;;;;;9.45;74.05273;935.4892;;;;
2022/04/13 01:16:05;;;;;;;3.5;2;;;;;;;9.38;74.28906;935.4842;;;;
2022/04/13 01:18:32;;;;;;;3.5;2.1;;;;;;;9.26;74.91797;935.4331;;;;
2022/04/13 01:20:59;;;;;;;2.6;1.9;;;;;;;9.29;74.74219;935.5009;;;;
2022/04/13 01:23:23;;;;;;;3.6;1.9;;;;;;;9.33;74.35938;935.4933;;;;
2022/04/13 01:25:48;;;;;;;4.2;1.9;;;;;;;9.34;74.31738;935.4617;;;;
2022/04/13 01:28:13;;;;;;;2.9;2;;;;;;;9.32;74.5625;935.4948;;;;
2022/04/13 01:30:42;;;;;;;4.6;2.4;;;;;;;9.23;74.87891;935.4797;;;;
2022/04/13 01:33:08;;;;;;;3.2;1.9;;;;;;;9.24;74.65234;935.4559;;;;
2022/04/13 01:35:35;;;;;;;3.1;1.9;;;;;;;9.21;74.87402;935.4672;;;;
2022/04/13 01:38:00;;;;;;;2.8;1.8;;;;;;;9.11;75.25488;935.4551;;;;
2022/04/13 01:40:30;;;;;;;2.1;1.9;;;;;;;9.13;75.12305;935.4808;;;;
2022/04/13 01:42:58;;;;;;;4.1;2.1;;;;;;;9.08;75.30762;935.4628;;;;
2022/04/13 01:45:23;;;;;;;3.8;1.9;;;;;;;9.06;75.54199;935.4903;;;;
2022/04/13 01:47:49;;;;;;;3;1.9;;;;;;;9.04;75.5957;935.5663;;;;
2022/04/13 01:50:20;;;;;;;3.1;1.7;;;;;;;9.12;74.86035;935.5133;;;;
2022/04/13 01:52:46;;;;;;;3.3;1.6;;;;;;;9.11;74.76563;935.4846;;;;
2022/04/13 01:55:16;;;;;;;4.2;1.9;;;;;;;9.14;74.50879;935.5285;;;;
2022/04/13 01:57:47;;;;;;;3.3;1.9;;;;;;;9.2;74.08691;935.5179;;;;
2022/04/13 02:00:17;;;;;;;8.4;2.5;;;;;;;9.23;73.86426;935.5424;;;;
2022/04/13 02:02:45;;;;;;;4.3;2.1;;;;;;;9.25;73.69824;935.5856;;;;
2022/04/13 02:05:20;;;;;;;3.5;1.9;;;;;;;9.23;73.64941;935.5781;;;;
2022/04/13 02:07:51;;;;;;;4.1;2.5;;;;;;;9.19;73.5625;935.6347;;;;
2022/04/13 02:10:22;;;;;;;6.6;3.3;;;;;;;9.02;74.25098;935.4939;;;;
2022/04/13 02:12:52;;;;;;;4.3;2.8;;;;;;;8.95;74.85254;935.5595;;;;
2022/04/13 02:15:17;;;;;;;3.6;2.4;;;;;;;8.84;75.45996;935.5552;;;;
2022/04/13 02:17:46;;;;;;;3.5;2.1;;;;;;;8.81;75.54297;935.6029;;;;
2022/04/13 02:20:12;;;;;;;4.4;2;;;;;;;8.89;75.08105;935.605;;;;
2022/04/13 02:22:42;;;;;;;4.3;2;;;;;;;8.99;74.7002;935.6298;;;;
2022/04/13 02:25:07;;;;;;;6.5;2.3;;;;;;;8.94;74.83887;935.6627;;;;
2022/04/13 02:27:38;;;;;;;4.5;2;;;;;;;8.88;74.81738;935.6365;;;;
2022/04/13 02:30:13;;;;;;;3;1.7;;;;;;;8.98;74.53906;935.6258;;;;
2022/04/13 02:32:44;;;;;;;4;2.2;;;;;;;9.05;74.13086;935.6189;;;;
2022/04/13 02:35:09;;;;;;;3.1;1.7;;;;;;;9.16;73.68262;935.6208;;;;
2022/04/13 02:37:38;;;;;;;3.4;1.9;;;;;;;9.12;73.72168;935.6578;;;;
2022/04/13 02:40:12;;;;;;;5.7;2.1;;;;;;;9.11;73.50293;935.614;;;;
2022/04/13 02:42:43;;;;;;;6.5;2.5;;;;;;;9.04;73.76367;935.6307;;;;
2022/04/13 02:45:17;;;;;;;3.7;2;;;;;;;8.97;73.94629;935.6495;;;;
2022/04/13 02:47:47;;;;;;;4.6;2.6;;;;;;;8.93;74.12012;935.6626;;;;
2022/04/13 02:50:12;;;;;;;6.1;2.4;;;;;;;8.94;74.11035;935.6253;;;;
2022/04/13 02:52:46;;;;;;;4.5;2.4;;;;;;;8.86;74.47168;935.6277;;;;
2022/04/13 02:55:16;;;;;;;4.7;2.4;;;;;;;8.74;75.31543;935.5529;;;;
2022/04/13 02:57:47;;;;;;;6;2.7;;;;;;;8.75;75.02148;935.5689;;;;
2022/04/13 03:00:17;;;;;;;6.5;2.6;;;;;;;8.64;75.51563;935.6351;;;;
2022/04/13 03:02:44;;;;;;;4.3;2.2;;;;;;;8.57;75.85547;935.5251;;;;
2022/04/13 03:05:08;;;;;;;3.6;1.8;;;;;;;8.55;75.89648;935.6686;;;;
2022/04/13 03:07:40;;;;;;;3.3;1.9;;;;;;;8.52;76.03906;935.6261;;;;
2022/04/13 03:10:11;;;;;;;7.1;2.4;;;;;;;8.42;76.32813;935.6153;;;;
2022/04/13 03:12:42;;;;;;;6.7;2.3;;;;;;;8.42;75.66895;935.6044;;;;
2022/04/13 03:15:06;;;;;;;3.8;2.1;;;;;;;8.76;73.11426;935.5429;;;;
2022/04/13 03:17:36;;;;;;;5.1;1.8;;;;;;;8.91;72.51367;935.6227;;;;
2022/04/13 03:20:04;;;;;;;3.9;1.7;;;;;;;9.05;71.45703;935.6135;;;;
2022/04/13 03:22:29;;;;;;;3.2;1.7;;;;;;;9.26;69.73828;935.5912;;;;
2022/04/13 03:24:58;;;;;;;2.6;1.6;;;;;;;9.4;69.55469;935.5972;;;;
2022/04/13 03:27:23;;;;;;;4.1;1.8;;;;;;;9.42;69.4668;935.628;;;;
2022/04/13 03:29:49;;;;;;;5.2;1.8;;;;;;;9.38;69.66602;935.6042;;;;
2022/04/13 03:32:15;;;;;;;3.7;2;;;;;;;9.32;70.09961;935.6529;;;;
2022/04/13 03:34:42;;;;;;;5.6;2.2;;;;;;;9.25;70.44336;935.6531;;;;
2022/04/13 03:37:07;;;;;;;3.8;2.2;;;;;;;9.05;71.55859;935.6014;;;;
2022/04/13 03:39:36;;;;;;;4.1;2.1;;;;;;;8.86;72.49316;935.5887;;;;
2022/04/13 03:45:02;;;;;;;3.2;1.8;;;;;;;8.63;73.76172;935.7175;;;;
2022/04/13 03:47:31;;;;;;;7;1.9;;;;;;;8.52;74.43652;935.7325;;;;
2022/04/13 03:50:00;;;;;;;4.8;2.3;;;;;;;8.35;74.82715;935.7101;;;;
2022/04/13 03:52:26;;;;;;;4.4;2.2;;;;;;;8.26;75.75391;935.7371;;;;
2022/04/13 03:54:54;;;;;;;3.9;2;;;;;;;8.19;76.17285;935.7905;;;;
2022/04/13 03:57:19;;;;;;;8.4;3.1;;;;;;;8.18;76.44434;935.742;;;;
2022/04/13 03:59:46;;;;;;;5.4;3.1;;;;;;;8.25;75.88867;935.6942;;;;
2022/04/13 04:02:45;;;;;;;6.5;3.3;;;;;;;8.3;75.55762;935.7933;;;;
2022/04/13 04:05:20;;;;;;;8.9;4;;;;;;;8.21;75.62109;935.7985;;;;
2022/04/13 04:07:46;;;;;;;14.2;7.1;;;;;;;7.87;76.81055;935.8181;;;;
2022/04/13 04:10:19;;;;;;;11.3;5.3;;;;;;;7.89;77.08691;935.8977;;;;
2022/04/13 04:12:48;;;;;;;10.3;5.3;;;;;;;7.97;76.48633;935.8616;;;;
2022/04/13 04:15:14;;;;;;;12.9;5.4;;;;;;;8.1;75.875;935.8773;;;;
2022/04/13 04:17:46;;;;;;;10.4;5.4;;;;;;;8.14;75.62012;935.8898;;;;
2022/04/13 04:20:18;;;;;;;10.2;5.6;;;;;;;8.19;75.38965;935.904;;;;
2022/04/13 04:22:47;;;;;;;8.2;4.8;;;;;;;8.21;75.63281;935.899;;;;
2022/04/13 04:25:15;;;;;;;13.3;5.3;;;;;;;8.25;75.03711;935.9281;;;;
2022/04/13 04:27:46;;;;;;;10.1;5.6;;;;;;;8.22;75.14648;935.9595;;;;
2022/04/13 04:30:17;;;;;;;8.7;5;;;;;;;8.16;75.33984;935.9789;;;;
2022/04/13 04:32:47;;;;;;;16.7;6.8;;;;;;;8.04;76.03418;935.9819;;;;
2022/04/13 04:35:13;;;;;;;12.5;5.9;;;;;;;8.04;76.13477;935.9938;;;;
2022/04/13 04:37:39;;;;;;;11.3;5.3;;;;;;;7.85;76.8291;935.9455;;;;
2022/04/13 04:40:12;;;;;;;17.5;7.7;;;;;;;7.73;77.64746;935.9472;;;;
2022/04/13 04:42:44;;;;;;;12.6;6;;;;;;;7.78;77.46289;935.9393;;;;
2022/04/13 04:45:16;;;;;;;19.8;7.9;;;;;;;7.83;77.30078;935.991;;;;
2022/04/13 04:47:40;;;;;;;17.2;6.9;;;;;;;7.88;76.91504;935.9871;;;;
2022/04/13 04:50:12;;;;;;;11.8;6.1;;;;;;;7.96;76.91602;935.9875;;;;
2022/04/13 04:52:41;;;;;;;15.4;5.3;;;;;;;8.06;76.68457;936.0069;;;;
2022/04/13 04:55:16;;;;;;;13.4;5.5;;;;;;;8.19;76.24121;935.9778;;;;
2022/04/13 04:57:40;;;;;;;22.6;7.2;;;;;;;8.3;75.48828;936.0327;;;;
2022/04/13 05:00:08;;;;;;;11.5;5.6;;;;;;;8.22;75.22363;936.0863;;;;
2022/04/13 05:02:40;;;;;;;10.2;5.2;;;;;;;8.16;75.40723;936.1019;;;;
2022/04/13 05:05:13;;;;;;;11.1;5.1;;;;;;;8.33;75.01563;936.0934;;;;
2022/04/13 05:07:37;;;;;;;10.1;5.2;;;;;;;8.4;74.35938;936.0884;;;;
2022/04/13 05:10:06;;;;;;;10.4;4.9;;;;;;;8.39;74.33496;936.1701;;;;
2022/04/13 05:12:32;;;;;;;11.3;4.5;;;;;;;8.24;74.60449;936.2025;;;;
2022/04/13 05:15:02;;;;;;;8.2;3.7;;;;;;;8.14;75.13184;936.2078;;;;
2022/04/13 05:17:27;;;;;;;11.4;3.9;;;;;;;8.12;75.53613;936.2059;;;;
2022/04/13 05:19:54;;;;;;;9.1;4.2;;;;;;;8.15;75.42676;936.2087;;;;
2022/04/13 05:22:20;;;;;;;8.2;4.7;;;;;;;8.11;75.74023;936.1526;;;;
2022/04/13 05:24:49;;;;;;;11.9;4.9;;;;;;;8.21;75.6084;936.2429;;;;
2022/04/13 05:27:12;;;;;;;10.1;5.4;;;;;;;8.22;75.51953;936.2846;;;;
2022/04/13 05:29:42;;;;;;;9.5;5.1;;;;;;;8.26;75.45898;936.2495;;;;
2022/04/13 05:32:15;;;;;;;9.3;4.3;;;;;;;8.4;74.80273;936.2645;;;;
2022/04/13 05:34:39;;;;;;;7.6;3.8;;;;;;;8.46;74.45996;936.2252;;;;
2022/04/13 05:37:09;;;;;;;11.7;4.9;;;;;;;8.65;74.0498;936.2178;;;;
2022/04/13 05:39:41;;;;;;;6.6;3.8;;;;;;;9.05;73.25293;936.2844;;;;
2022/04/13 05:42:06;;;;;;;8.7;4.5;;;;;;;9.55;71.2998;936.1816;;;;
2022/04/13 05:44:35;;;;;;;17.2;9.1;;;;;;;9.94;69.31152;936.277;;;;
2022/04/13 05:47:00;;;;;;;21.3;10.7;;;;;;;10.22;68.50195;936.2308;;;;
2022/04/13 05:49:28;;;;;;;25.2;14.2;;;;;;;10.37;67.56641;936.3091;;;;
2022/04/13 05:51:53;;;;;;;18;8.9;;;;;;;10.41;67.65234;936.2894;;;;
2022/04/13 05:54:20;;;;;;;12.8;6.6;;;;;;;10.54;67.13477;936.301;;;;
2022/04/13 05:56:45;;;;;;;11.1;5.6;;;;;;;10.88;66.50391;936.3098;;;;
2022/04/13 05:59:11;;;;;;;10.8;4.7;;;;;;;11.15;64.98926;936.3072;;;;
2022/04/13 06:01:37;;;;;;;14.8;5.3;;;;;;;11.91;63.94629;936.3058;;;;
2022/04/13 06:04:05;;;;;;;11.3;4.5;;;;;;;11.54;63.10254;936.215;;;;
2022/04/13 06:06:30;;;;;;;11.1;5.1;;;;;;;11.57;63.70215;936.2932;;;;
2022/04/13 06:08:57;;;;;;;13.9;4.6;;;;;;;11.82;63.24707;936.257;;;;
2022/04/13 06:11:22;;;;;;;11.2;4.8;;;;;;;12.16;61.9209;936.2216;;;;
2022/04/13 06:13:52;;;;;;;9.8;4.6;;;;;;;12.44;60.67676;936.353;;;;
2022/04/13 06:16:21;;;;;;;15.4;7.6;;;;;;;12.97;58.15625;936.3453;;;;
2022/04/13 06:18:46;;;;;;;23.5;12;;;;;;;13.76;54.75391;936.3113;;;;
2022/04/13 06:21:16;;;;;;;25.2;10.1;;;;;;;14.56;53.27441;936.3412;;;;
2022/04/13 06:23:45;;;;;;;6.6;2.9;;;;;;;15.99;47.86426;936.2825;;;;
2022/04/13 06:26:10;;;;;;;4;1.7;;;;;;;16.58;46.59863;936.3087;;;;
2022/04/13 06:28:37;;;;;;;24.8;14.6;;;;;;;16.4;48.1748;936.2794;;;;
2022/04/13 06:31:02;;;;;;;21.6;12.7;;;;;;;16.29;48.82324;936.2988;;;;
2022/04/13 06:33:31;;;;;;;15.7;9.3;;;;;;;16.05;49.54688;936.2443;;;;
2022/04/13 06:36:01;;;;;;;14.1;6.5;;;;;;;16.24;49.0957;936.2569;;;;
2022/04/13 06:38:26;;;;;;;8.6;4.8;;;;;;;17.22;44.40527;936.2472;;;;
2022/04/13 06:40:55;;;;;;;6.8;3.4;;;;;;;18;42.78809;936.1813;;;;
2022/04/13 06:43:19;;;;;;;9.7;5.3;;;;;;;18.31;42.72656;936.1545;;;;
2022/04/13 06:45:48;;;;;;;7.5;4.2;;;;;;;18.66;41.38672;936.2366;;;;
2022/04/13 06:48:13;;;;;;;4.8;2.5;;;;;;;19.51;38.51758;936.19;;;;
2022/04/13 06:50:41;;;;;;;4.1;1.7;;;;;;;19.68;37.44824;936.1624;;;;
2022/04/13 06:53:06;;;;;;;2.4;1.3;;;;;;;19.35;39.0166;936.1853;;;;
2022/04/13 06:55:37;;;;;;;2.6;1.2;;;;;;;20.89;35.92676;936.2025;;;;
2022/04/13 06:58:04;;;;;;;3;1.2;;;;;;;22.2;32.80762;936.1099;;;;
2022/04/13 07:00:30;;;;;;;3.1;1.4;;;;;;;20.98;34.25;936.1437;;;;
2022/04/13 07:03:00;;;;;;;4.9;2.1;;;;;;;19.03;37.26563;936.0461;;;;
2022/04/13 07:05:31;;;;;;;7.4;2.4;;;;;;;19.67;36.98145;936.0181;;;;
2022/04/13 07:07:59;;;;;;;4;1.8;;;;;;;21.06;34.49023;936.0796;;;;
2022/04/13 07:10:26;;;;;;;5.8;1.9;;;;;;;20.64;34.86621;936.0708;;;;
2022/04/13 07:12:53;;;;;;;5.6;2;;;;;;;20.89;34.35938;936.0239;;;;
2022/04/13 07:15:19;;;;;;;4.1;1.7;;;;;;;20.88;34.35938;935.9933;;;;
2022/04/13 07:17:48;;;;;;;4.1;1.7;;;;;;;19.4;36.93555;936.038;;;;
2022/04/13 07:20:19;;;;;;;3.4;1.7;;;;;;;21.72;33.70898;936.0161;;;;
2022/04/13 07:22:46;;;;;;;4.8;1.7;;;;;;;22.49;32.54688;935.983;;;;
2022/04/13 07:25:11;;;;;;;3.2;1.8;;;;;;;22.53;30.83789;935.9675;;;;
2022/04/13 07:27:36;;;;;;;4.4;1.9;;;;;;;21.56;31.83594;936.0045;;;;
2022/04/13 07:30:05;;;;;;;2.7;1.4;;;;;;;20.44;33.69434;935.9392;;;;
2022/04/13 07:32:30;;;;;;;3.7;1.5;;;;;;;19.81;35.11523;935.9339;;;;
2022/04/13 07:34:58;;;;;;;2.4;1.4;;;;;;;20.59;34.46484;935.9531;;;;
2022/04/13 07:37:23;;;;;;;5.1;2;;;;;;;19.92;34.98438;935.9422;;;;
2022/04/13 07:45:22;;;;;;;2.5;1.5;;;;;;;19.12;35.93359;935.9428;;;;
2022/04/13 07:47:41;;;;;;;2.7;1.9;;;;;;;20.05;35.01758;935.8359;;;;
2022/04/13 07:50:16;;;;;;;3.5;1.7;;;;;;;20;35.93652;935.8572;;;;
2022/04/13 07:52:48;;;;;;;5;3;;;;;;;20.76;34.73438;935.8879;;;;
2022/04/13 07:55:20;;;;;;;5.7;3.1;;;;;;;21.82;33.7168;935.894;;;;
2022/04/13 07:57:49;;;;;;;5;3.1;;;;;;;23.17;31.32813;935.8162;;;;
2022/04/13 08:00:22;;;;;;;4.1;2.3;;;;;;;22.43;31.00586;935.9536;;;;
2022/04/13 08:02:58;;;;;;;5;2.4;;;;;;;21.59;32.9502;935.9119;;;;
2022/04/13 08:05:29;;;;;;;6.7;2.5;;;;;;;23.15;30.7041;935.8314;;;;
2022/04/13 08:07:56;;;;;;;3.8;1.9;;;;;;;24.27;30.47461;935.8373;;;;
2022/04/13 08:10:26;;;;;;;4.8;2.2;;;;;;;24.6;29.45996;935.8083;;;;
2022/04/13 08:12:51;;;;;;;3.1;2;;;;;;;24.87;28.42871;935.8997;;;;
2022/04/13 08:15:24;;;;;;;3.1;2.4;;;;;;;24.64;27.19922;935.7701;;;;
2022/04/13 08:17:48;;;;;;;4.2;2.7;;;;;;;25.06;26.43359;935.853;;;;
2022/04/13 08:20:16;;;;;;;4.3;2.2;;;;;;;26.85;26.80078;935.8098;;;;
2022/04/13 08:22:41;;;;;;;4;2.1;;;;;;;25.02;26.71484;935.8967;;;;
2022/04/13 08:25:14;;;;;;;3.3;1.6;;;;;;;26.33;26.43848;935.8708;;;;
2022/04/13 08:27:45;;;;;;;2.7;1.4;;;;;;;25.82;25.27246;935.8699;;;;
2022/04/13 08:30:17;;;;;;;2.4;1.4;;;;;;;24.06;27.58789;935.8777;;;;
2022/04/13 08:32:41;;;;;;;3.9;1.7;;;;;;;23.78;28.24121;935.7969;;;;
2022/04/13 08:35:14;;;;;;;3.4;1.4;;;;;;;25.86;27.56934;935.8622;;;;
2022/04/13 08:37:49;;;;;;;3.3;1.6;;;;;;;26.64;25.55664;935.8198;;;;
2022/04/13 08:40:19;;;;;;;3.9;1.4;;;;;;;27.09;24.7998;935.7958;;;;
2022/04/13 08:42:42;;;;;;;5.6;1.5;;;;;;;27.7;25.3916;935.8387;;;;
2022/04/13 08:45:16;;;;;;;3.2;1.5;;;;;;;28.32;24.9502;935.8131;;;;
2022/04/13 08:47:41;;;;;;;4;1.4;;;;;;;29.13;22.9707;935.8644;;;;
2022/04/13 08:50:06;;;;;;;2.5;1.3;;;;;;;29.8;22.94629;935.7942;;;;
2022/04/13 08:52:41;;;;;;;2.6;1.7;;;;;;;30.84;23.17773;935.7684;;;;
2022/04/13 08:55:06;;;;;;;3;1.4;;;;;;;30.31;20.46387;935.8093;;;;
2022/04/13 08:57:31;;;;;;;4.1;1.4;;;;;;;31.4;21.88965;935.7434;;;;
2022/04/13 08:59:56;;;;;;;3.2;1.2;;;;;;;32.49;20.63477;935.7963;;;;
2022/04/13 09:02:21;;;;;;;2.8;1.6;;;;;;;32.43;19.1084;935.7798;;;;
2022/04/13 09:04:51;;;;;;;2.9;1.2;;;;;;;32.26;18.95801;935.7252;;;;
2022/04/13 09:07:16;;;;;;;2.3;1.4;;;;;;;33.23;18.76953;935.7586;;;;
2022/04/13 09:09:43;;;;;;;2.5;1.5;;;;;;;33.44;18.38184;935.7708;;;;
2022/04/13 09:12:11;;;;;;;2.5;1.2;;;;;;;33.49;18.69629;935.7714;;;;
2022/04/13 09:14:36;;;;;;;2.9;1.4;;;;;;;34.09;18.58887;935.7742;;;;
2022/04/13 09:17:02;;;;;;;2.6;1.2;;;;;;;34.09;18.91309;935.8077;;;;
2022/04/13 09:19:26;;;;;;;1.9;1.3;;;;;;;34.34;18.41797;935.6916;;;;
2022/04/13 09:21:52;;;;;;;3.4;1.2;;;;;;;34.68;17.56348;935.7275;;;;
2022/04/13 09:24:17;;;;;;;4.4;1.2;;;;;;;34.4;17.05957;935.6853;;;;
2022/04/13 09:26:42;;;;;;;2.6;1.2;;;;;;;34.19;17.40039;935.66;;;;
2022/04/13 09:29:09;;;;;;;3.2;1.5;;;;;;;33.42;18.81348;935.6642;;;;
2022/04/13 09:31:34;;;;;;;3.2;1.3;;;;;;;33.58;18.47168;935.664;;;;
2022/04/13 09:34:05;;;;;;;2.9;1.3;;;;;;;32.79;20.4082;935.6519;;;;
2022/04/13 09:36:30;;;;;;;2.5;1.3;;;;;;;32.57;18.41895;935.6125;;;;
2022/04/13 09:38:56;;;;;;;1.4;1;;;;;;;31.66;19.50684;935.6507;;;;
2022/04/13 09:41:21;;;;;;;3.2;1.3;;;;;;;31.44;20.19238;935.5845;;;;
2022/04/13 09:43:51;;;;;;;5;1.5;;;;;;;31.08;21.0498;935.6355;;;;
2022/04/13 09:46:16;;;;;;;3;1.1;;;;;;;30.43;23.15625;935.6211;;;;
2022/04/13 09:48:41;;;;;;;2;1.4;;;;;;;30.06;23.2334;935.6052;;;;
2022/04/13 09:51:08;;;;;;;3;1.1;;;;;;;30.04;23.11328;935.6362;;;;
2022/04/13 09:53:33;;;;;;;2.1;1.2;;;;;;;29.63;23.76074;935.5416;;;;
2022/04/13 09:56:01;;;;;;;2.8;1.3;;;;;;;29.41;24.62988;935.6138;;;;
2022/04/13 09:58:26;;;;;;;3.2;1;;;;;;;29.84;24.50977;935.5836;;;;
2022/04/13 10:00:55;;;;;;;2.6;1.3;;;;;;;29.16;24.03223;935.5818;;;;
2022/04/13 10:03:20;;;;;;;4.1;1.4;;;;;;;29.32;24.2793;935.4885;;;;
2022/04/13 10:05:45;;;;;;;2.3;1;;;;;;;29.14;25.01953;935.5078;;;;
2022/04/13 10:08:15;;;;;;;2.2;1.1;;;;;;;28.91;24.03125;935.4178;;;;
2022/04/13 10:10:40;;;;;;;3.1;1.1;;;;;;;28.2;27.70117;935.4586;;;;
2022/04/13 10:13:09;;;;;;;3.1;1;;;;;;;28.86;25.45703;935.4647;;;;
2022/04/13 10:15:39;;;;;;;3.7;1.2;;;;;;;29.52;24.4209;935.4088;;;;
2022/04/13 10:18:05;;;;;;;3.1;1.2;;;;;;;30.06;24.10449;935.395;;;;
2022/04/13 10:20:34;;;;;;;2.2;1.1;;;;;;;29.11;25.43555;935.3415;;;;
2022/04/13 10:23:00;;;;;;;3.3;1;;;;;;;29.65;24.02344;935.3639;;;;
2022/04/13 10:25:26;;;;;;;2.9;1.4;;;;;;;30.61;23.72754;935.3085;;;;
2022/04/13 10:27:55;;;;;;;2.6;1.1;;;;;;;30.96;22.35938;935.2335;;;;
2022/04/13 10:30:20;;;;;;;1.4;1.2;;;;;;;31.51;22.12207;935.2802;;;;
2022/04/13 10:32:48;;;;;;;2.8;0.8;;;;;;;31.48;21.36719;935.2521;;;;
2022/04/13 10:35:16;;;;;;;2.6;1.1;;;;;;;31.73;21.23535;935.2285;;;;
2022/04/13 10:37:46;;;;;;;1.2;1;;;;;;;32.27;20.80469;935.2408;;;;
2022/04/13 10:40:17;;;;;;;1.5;0.9;;;;;;;31.47;21.43848;935.1644;;;;
2022/04/13 10:42:50;;;;;;;1.9;1;;;;;;;29.88;23.91602;935.1859;;;;
2022/04/13 10:45:14;;;;;;;3.9;1.2;;;;;;;29.39;23.88965;935.1791;;;;
2022/04/13 10:47:44;;;;;;;2.1;1.3;;;;;;;29.79;23.79199;935.2065;;;;
2022/04/13 10:50:16;;;;;;;4.5;1.1;;;;;;;29.88;23.55859;935.207;;;;
2022/04/13 10:52:41;;;;;;;4.1;1;;;;;;;30.41;23.9082;935.1376;;;;
2022/04/13 10:55:07;;;;;;;1.9;1.2;;;;;;;30.26;25.02246;935.0952;;;;
2022/04/13 10:57:33;;;;;;;2.1;1.1;;;;;;;29.75;26.21094;935.0967;;;;
2022/04/13 10:59:57;;;;;;;2.4;1.1;;;;;;;29.7;24.59863;935.1042;;;;
2022/04/13 11:02:27;;;;;;;2.8;1.2;;;;;;;29.81;25.16504;935.144;;;;
2022/04/13 11:04:57;;;;;;;3.5;1.5;;;;;;;30.04;24.33105;935.122;;;;
2022/04/13 11:07:23;;;;;;;5;1.3;;;;;;;30;25.61621;935.1691;;;;
2022/04/13 11:09:47;;;;;;;1.2;1.1;;;;;;;30.35;25.12305;935.1375;;;;
2022/04/13 11:12:18;;;;;;;4.5;1.2;;;;;;;29.89;27.01855;935.0912;;;;
2022/04/13 11:14:47;;;;;;;1.7;1;;;;;;;29.47;25.97949;935.0687;;;;
2022/04/13 11:17:13;;;;;;;2.6;1.2;;;;;;;29.36;26.71191;935.082;;;;
2022/04/13 11:19:37;;;;;;;2.6;1.4;;;;;;;29.52;25.24316;935.0953;;;;
2022/04/13 11:22:05;;;;;;;6.2;1.8;;;;;;;29.89;25.22852;935.0824;;;;
2022/04/13 11:24:30;;;;;;;4.6;1.1;;;;;;;30.32;24.11914;935.0184;;;;
2022/04/13 11:26:57;;;;;;;1.7;1.1;;;;;;;30.62;23.3457;934.981;;;;
2022/04/13 11:29:23;;;;;;;3.1;1;;;;;;;29.99;25.16309;934.9799;;;;
2022/04/13 11:31:49;;;;;;;17.4;2.6;;;;;;;30.17;24.58789;934.9375;;;;
2022/04/13 11:34:14;;;;;;;3.1;1.2;;;;;;;29.95;24.73047;934.9556;;;;
2022/04/13 11:36:43;;;;;;;1.9;1;;;;;;;28.99;25.76172;934.9371;;;;
2022/04/13 11:39:12;;;;;;;1.9;0.9;;;;;;;28.95;25.60449;934.8969;;;;
2022/04/13 11:41:37;;;;;;;2.2;1.2;;;;;;;29.49;24.25293;934.8503;;;;
2022/04/13 11:44:02;;;;;;;2.5;0.9;;;;;;;29.56;25.1748;934.7581;;;;
2022/04/13 11:46:29;;;;;;;2.3;1;;;;;;;29.37;24.91406;934.848;;;;
2022/04/13 11:48:54;;;;;;;1.7;0.9;;;;;;;29.52;24.64844;934.8193;;;;
2022/04/13 11:51:19;;;;;;;1.5;0.9;;;;;;;29.49;24.1582;934.8066;;;;
2022/04/13 11:53:46;;;;;;;3.4;1.1;;;;;;;29.76;25.03027;934.8278;;;;
2022/04/13 11:56:11;;;;;;;1.7;1;;;;;;;29.81;23.90039;934.8681;;;;
2022/04/13 11:58:37;;;;;;;2.1;1.3;;;;;;;30.54;23.80762;934.8383;;;;
2022/04/13 12:01:05;;;;;;;3.1;1;;;;;;;30.47;23.44531;934.7667;;;;
2022/04/13 12:03:28;;;;;;;3.7;1.3;;;;;;;30.6;23.89453;934.7422;;;;
2022/04/13 12:05:56;;;;;;;2.8;1.3;;;;;;;29.37;26.43848;934.7115;;;;
2022/04/13 12:08:21;;;;;;;2;1;;;;;;;28.99;26.60742;934.7668;;;;
2022/04/13 12:10:47;;;;;;;2.2;1.1;;;;;;;29.06;25.64648;934.7715;;;;
2022/04/13 12:13:12;;;;;;;2.3;1.1;;;;;;;28.23;29.28418;934.7789;;;;
2022/04/13 12:15:38;;;;;;;3.8;1.3;;;;;;;28.37;30.06543;934.7578;;;;
2022/04/13 12:18:05;;;;;;;1.6;1.2;;;;;;;28.6;29.30762;934.802;;;;
2022/04/13 12:20:31;;;;;;;2;1.1;;;;;;;29.15;27.2002;934.6909;;;;
2022/04/13 12:22:58;;;;;;;2.7;1.3;;;;;;;29.39;26.97656;934.7036;;;;
2022/04/13 12:25:23;;;;;;;2.4;1.1;;;;;;;29.1;27.31641;934.6832;;;;
2022/04/13 12:27:51;;;;;;;2.3;1.1;;;;;;;28.96;27.42676;934.683;;;;
2022/04/13 12:30:20;;;;;;;3.4;1.1;;;;;;;29.14;27.75977;934.6971;;;;
2022/04/13 12:32:45;;;;;;;4.2;1.2;;;;;;;29.94;26.29297;934.6016;;;;
2022/04/13 12:35:12;;;;;;;2;1.1;;;;;;;29.92;26.14941;934.5872;;;;
2022/04/13 12:37:41;;;;;;;2.1;1.2;;;;;;;29.69;26.48145;934.6063;;;;
2022/04/13 12:40:15;;;;;;;3.3;1.3;;;;;;;28.92;29.66211;934.5477;;;;
2022/04/13 12:42:48;;;;;;;1.6;1.2;;;;;;;27.77;29.7998;934.5103;;;;
2022/04/13 12:45:14;;;;;;;2.1;1.1;;;;;;;27.7;31.68262;934.4864;;;;
2022/04/13 12:47:46;;;;;;;2;1.1;;;;;;;28.11;29.27539;934.4609;;;;
2022/04/13 12:50:17;;;;;;;2.4;1.4;;;;;;;28.26;30.7002;934.4827;;;;
2022/04/13 12:52:47;;;;;;;2.5;1.1;;;;;;;28.08;28.20508;934.5025;;;;
2022/04/13 12:55:14;;;;;;;1.6;1.2;;;;;;;28.14;28.17285;934.4888;;;;
2022/04/13 12:57:44;;;;;;;2.3;1.1;;;;;;;28.87;27.86133;934.4997;;;;
2022/04/13 13:00:15;;;;;;;3;1.2;;;;;;;28.48;27.96777;934.4785;;;;
2022/04/13 13:02:40;;;;;;;2.2;1.1;;;;;;;28.75;27.96094;934.4835;;;;
2022/04/13 13:05:10;;;;;;;1.8;1.2;;;;;;;28.85;27.93164;934.4424;;;;
2022/04/13 13:07:43;;;;;;;3.1;1.4;;;;;;;28.37;28.21094;934.3692;;;;
2022/04/13 13:13:56;;;;;;;1.7;1.2;;;;;;;27.26;29.1377;934.373;;;;
2022/04/13 13:16:25;;;;;;;1.9;1.1;;;;;;;27.12;29.5791;934.3778;;;;
2022/04/13 13:18:51;;;;;;;1.4;0.9;;;;;;;27.11;28.99805;934.3542;;;;
2022/04/13 13:21:17;;;;;;;2;1.3;;;;;;;27.2;28.91992;934.366;;;;
2022/04/13 13:23:44;;;;;;;2.8;1;;;;;;;27.14;29.95996;934.3073;;;;
2022/04/13 13:26:09;;;;;;;2.3;0.9;;;;;;;27.11;30.44434;934.2667;;;;
2022/04/13 13:28:36;;;;;;;2.1;1.1;;;;;;;26.87;30.30859;934.3596;;;;
2022/04/13 13:31:02;;;;;;;1.1;1.1;;;;;;;26.77;29.68652;934.3253;;;;
2022/04/13 13:33:26;;;;;;;2.8;1.4;;;;;;;26.77;30.21973;934.385;;;;
2022/04/13 13:35:51;;;;;;;2.4;1.1;;;;;;;26.6;30.01855;934.2897;;;;
2022/04/13 13:38:19;;;;;;;3;1.2;;;;;;;26.52;31.43457;934.3358;;;;
2022/04/13 13:40:42;;;;;;;1.5;1.2;;;;;;;25.86;33.48047;934.1834;;;;
2022/04/13 13:43:10;;;;;;;2.3;1.1;;;;;;;25.65;33.24023;934.2908;;;;
2022/04/13 13:45:34;;;;;;;3.6;1.3;;;;;;;25.72;33.2207;934.2424;;;;
2022/04/13 13:48:06;;;;;;;2.7;1.1;;;;;;;25.98;32.2002;934.2954;;;;
2022/04/13 13:50:37;;;;;;;6;1.5;;;;;;;26.18;33.70508;934.2296;;;;
2022/04/13 13:53:07;;;;;;;3;1.3;;;;;;;26.16;32.50879;934.2441;;;;
2022/04/13 13:55:37;;;;;;;1.8;1.3;;;;;;;25.98;31.9043;934.2852;;;;
2022/04/13 13:58:08;;;;;;;2.7;1.1;;;;;;;26.05;32.80859;934.2999;;;;
2022/04/13 14:00:35;;;;;;;1.9;1.4;;;;;;;26.1;32.97754;934.3021;;;;
2022/04/13 14:03:05;;;;;;;3.5;1.4;;;;;;;26.15;32.08203;934.2537;;;;
2022/04/13 14:05:33;;;;;;;2.5;1.5;;;;;;;26.16;33.43164;934.1752;;;;
2022/04/13 14:07:58;;;;;;;2.6;1.5;;;;;;;26.19;32.12109;934.2521;;;;
2022/04/13 14:10:23;;;;;;;2.4;1.7;;;;;;;25.95;31.90234;934.2991;;;;
2022/04/13 14:12:51;;;;;;;1.3;1;;;;;;;26.05;32.76074;934.2684;;;;
2022/04/13 14:15:16;;;;;;;2.1;1.2;;;;;;;25.99;32.35449;934.2631;;;;
2022/04/13 14:17:47;;;;;;;2;1.2;;;;;;;25.8;33.03809;934.3024;;;;
2022/04/13 14:20:17;;;;;;;3.7;1.4;;;;;;;25.77;33.02441;934.2856;;;;
2022/04/13 14:22:47;;;;;;;2.6;1.4;;;;;;;25.69;33.38477;934.2551;;;;
2022/04/13 14:25:13;;;;;;;5.7;1.5;;;;;;;25.57;33.24609;934.199;;;;
2022/04/13 14:27:40;;;;;;;2.6;1.4;;;;;;;25.45;33.80469;934.1772;;;;
2022/04/13 14:30:05;;;;;;;4.7;1.3;;;;;;;25.54;33.82227;934.2122;;;;
2022/04/13 14:32:35;;;;;;;3.6;1.2;;;;;;;25.26;34.5332;934.1587;;;;
2022/04/13 14:35:07;;;;;;;1.9;1.2;;;;;;;25.46;33.5918;934.1615;;;;
2022/04/13 14:37:33;;;;;;;2.7;1;;;;;;;25.32;34.36035;934.2094;;;;
2022/04/13 14:39:56;;;;;;;1.8;1;;;;;;;25.31;33.42676;934.2238;;;;
2022/04/13 14:42:27;;;;;;;3;1.6;;;;;;;25.24;34.24805;934.2001;;;;